Hutag, Mongolia
Current Conditions -  °F | °C
As of 8:30 AM on Thursday 23 Oct 2014 (Local Time) from UIII Reporting Station
Haze Haze  
Wind Chill: 32°   Ceiling: 1100
Heat Index: 32°   Visibility: 1.8mi
Dew Point: 32°   Wind: 0mph
Humidity: 100%   Direction: NA
Pressure: 29.94"   Gusts: NA
Location:  49.39°N, 102.7°E
Report Text: UIII 230030Z 00000MPS 3000 BR OVC011 00/M00 Q1014 NOSIG RMKQBB350 QFE716/0954 30190055
Loading
Personal Weather Stations






























Interactive Weather Map
Tropical Storm Tracking
New forecast layout! Learn more

10-Day Weather Forecast

Advertisements
Track Severe Weather on mobile